sensor_id;sensor_type;location;lat;lon;timestamp;temperature;humidity
37794;DHT22;23632;48.826;15.176;2023-07-24T00:01:55;27.40;57.10
37794;DHT22;23632;48.826;15.176;2023-07-24T00:04:22;27.50;57.50
37794;DHT22;23632;48.826;15.176;2023-07-24T00:06:49;27.40;57.00
37794;DHT22;23632;48.826;15.176;2023-07-24T00:09:16;27.40;57.30
37794;DHT22;23632;48.826;15.176;2023-07-24T00:11:43;27.40;57.10
37794;DHT22;23632;48.826;15.176;2023-07-24T00:14:11;27.40;57.50
37794;DHT22;23632;48.826;15.176;2023-07-24T00:16:38;27.30;57.30
37794;DHT22;23632;48.826;15.176;2023-07-24T00:19:05;27.40;57.30
37794;DHT22;23632;48.826;15.176;2023-07-24T00:21:32;27.30;57.40
37794;DHT22;23632;48.826;15.176;2023-07-24T00:24:00;27.30;57.40
37794;DHT22;23632;48.826;15.176;2023-07-24T00:26:27;27.30;57.40
37794;DHT22;23632;48.826;15.176;2023-07-24T00:28:55;27.30;57.30
37794;DHT22;23632;48.826;15.176;2023-07-24T00:31:22;27.30;57.30
37794;DHT22;23632;48.826;15.176;2023-07-24T00:33:50;27.30;57.40
37794;DHT22;23632;48.826;15.176;2023-07-24T00:36:17;27.20;57.40
37794;DHT22;23632;48.826;15.176;2023-07-24T00:38:44;27.20;57.30
37794;DHT22;23632;48.826;15.176;2023-07-24T00:41:13;27.20;57.10
37794;DHT22;23632;48.826;15.176;2023-07-24T00:43:41;27.20;57.40
37794;DHT22;23632;48.826;15.176;2023-07-24T00:46:10;27.20;57.60
37794;DHT22;23632;48.826;15.176;2023-07-24T00:48:39;27.20;57.10
37794;DHT22;23632;48.826;15.176;2023-07-24T00:51:07;27.20;57.60
37794;DHT22;23632;48.826;15.176;2023-07-24T00:53:34;27.20;57.30
37794;DHT22;23632;48.826;15.176;2023-07-24T00:56:01;27.20;57.50
37794;DHT22;23632;48.826;15.176;2023-07-24T00:58:29;27.20;57.40
37794;DHT22;23632;48.826;15.176;2023-07-24T01:00:57;27.20;57.40
37794;DHT22;23632;48.826;15.176;2023-07-24T01:03:33;27.20;57.60
37794;DHT22;23632;48.826;15.176;2023-07-24T01:06:03;27.10;57.70
37794;DHT22;23632;48.826;15.176;2023-07-24T01:08:30;27.10;57.60
37794;DHT22;23632;48.826;15.176;2023-07-24T01:11:00;27.10;57.80
37794;DHT22;23632;48.826;15.176;2023-07-24T01:13:36;27.10;58.00
37794;DHT22;23632;48.826;15.176;2023-07-24T01:16:18;27.10;57.70
37794;DHT22;23632;48.826;15.176;2023-07-24T01:18:46;27.10;58.00
37794;DHT22;23632;48.826;15.176;2023-07-24T01:21:18;27.10;58.00
37794;DHT22;23632;48.826;15.176;2023-07-24T01:24:03;27.10;57.90
37794;DHT22;23632;48.826;15.176;2023-07-24T01:26:31;27.10;57.90
37794;DHT22;23632;48.826;15.176;2023-07-24T01:28:58;27.10;57.60
37794;DHT22;23632;48.826;15.176;2023-07-24T01:31:25;27.10;57.80
37794;DHT22;23632;48.826;15.176;2023-07-24T01:33:53;27.10;57.90
37794;DHT22;23632;48.826;15.176;2023-07-24T01:36:20;27.10;57.90
37794;DHT22;23632;48.826;15.176;2023-07-24T01:38:49;27.10;57.40
37794;DHT22;23632;48.826;15.176;2023-07-24T01:41:17;27.10;57.80
37794;DHT22;23632;48.826;15.176;2023-07-24T01:43:45;27.10;58.00
37794;DHT22;23632;48.826;15.176;2023-07-24T01:46:12;27.10;58.30
37794;DHT22;23632;48.826;15.176;2023-07-24T01:48:39;27.10;58.30
37794;DHT22;23632;48.826;15.176;2023-07-24T01:51:07;27.10;58.60
37794;DHT22;23632;48.826;15.176;2023-07-24T01:53:34;27.10;58.70
37794;DHT22;23632;48.826;15.176;2023-07-24T01:56:01;27.10;58.90
37794;DHT22;23632;48.826;15.176;2023-07-24T01:58:28;27.10;58.60
37794;DHT22;23632;48.826;15.176;2023-07-24T02:00:55;27.10;58.50
37794;DHT22;23632;48.826;15.176;2023-07-24T02:03:22;27.10;58.50
37794;DHT22;23632;48.826;15.176;2023-07-24T02:05:50;27.10;58.40
37794;DHT22;23632;48.826;15.176;2023-07-24T02:08:18;27.10;58.50
37794;DHT22;23632;48.826;15.176;2023-07-24T02:10:48;27.10;58.50
37794;DHT22;23632;48.826;15.176;2023-07-24T02:13:17;27.10;57.80
37794;DHT22;23632;48.826;15.176;2023-07-24T02:15:48;27.10;58.10
37794;DHT22;23632;48.826;15.176;2023-07-24T02:18:15;27.10;58.40
37794;DHT22;23632;48.826;15.176;2023-07-24T02:20:49;27.10;58.30
37794;DHT22;23632;48.826;15.176;2023-07-24T02:23:17;27.10;58.90
37794;DHT22;23632;48.826;15.176;2023-07-24T02:25:44;27.00;58.90
37794;DHT22;23632;48.826;15.176;2023-07-24T02:28:11;27.10;59.20
37794;DHT22;23632;48.826;15.176;2023-07-24T02:30:39;27.00;59.40
37794;DHT22;23632;48.826;15.176;2023-07-24T02:33:07;27.00;59.50
37794;DHT22;23632;48.826;15.176;2023-07-24T02:35:41;27.10;59.70
37794;DHT22;23632;48.826;15.176;2023-07-24T02:38:08;27.00;59.60
37794;DHT22;23632;48.826;15.176;2023-07-24T02:40:40;27.10;59.70
37794;DHT22;23632;48.826;15.176;2023-07-24T02:43:08;27.10;59.50
37794;DHT22;23632;48.826;15.176;2023-07-24T02:45:36;27.10;59.20
37794;DHT22;23632;48.826;15.176;2023-07-24T02:48:04;27.10;59.30
37794;DHT22;23632;48.826;15.176;2023-07-24T02:50:33;27.10;59.40
37794;DHT22;23632;48.826;15.176;2023-07-24T02:53:00;27.00;59.60
37794;DHT22;23632;48.826;15.176;2023-07-24T02:55:28;27.00;59.70
37794;DHT22;23632;48.826;15.176;2023-07-24T02:57:55;27.00;59.90
37794;DHT22;23632;48.826;15.176;2023-07-24T03:00:23;27.00;59.90
37794;DHT22;23632;48.826;15.176;2023-07-24T03:02:52;27.00;60.00
37794;DHT22;23632;48.826;15.176;2023-07-24T03:05:19;27.00;59.50
37794;DHT22;23632;48.826;15.176;2023-07-24T03:07:47;27.00;59.60
37794;DHT22;23632;48.826;15.176;2023-07-24T03:10:14;27.00;59.70
37794;DHT22;23632;48.826;15.176;2023-07-24T03:12:41;27.00;59.90
37794;DHT22;23632;48.826;15.176;2023-07-24T03:15:08;27.00;60.00
37794;DHT22;23632;48.826;15.176;2023-07-24T03:17:36;27.00;60.00
37794;DHT22;23632;48.826;15.176;2023-07-24T03:20:18;27.00;60.10
37794;DHT22;23632;48.826;15.176;2023-07-24T03:22:46;27.00;59.80
37794;DHT22;23632;48.826;15.176;2023-07-24T03:25:14;27.00;59.80
37794;DHT22;23632;48.826;15.176;2023-07-24T03:27:41;27.00;60.00
37794;DHT22;23632;48.826;15.176;2023-07-24T03:30:09;27.00;59.90
37794;DHT22;23632;48.826;15.176;2023-07-24T03:32:37;27.00;59.90
37794;DHT22;23632;48.826;15.176;2023-07-24T03:35:06;27.00;59.40
37794;DHT22;23632;48.826;15.176;2023-07-24T03:37:36;26.90;58.90
37794;DHT22;23632;48.826;15.176;2023-07-24T03:40:04;26.90;59.30
37794;DHT22;23632;48.826;15.176;2023-07-24T03:42:31;26.90;59.40
37794;DHT22;23632;48.826;15.176;2023-07-24T03:44:59;26.80;59.50
37794;DHT22;23632;48.826;15.176;2023-07-24T03:47:26;26.80;59.60
37794;DHT22;23632;48.826;15.176;2023-07-24T03:49:53;26.80;59.80
37794;DHT22;23632;48.826;15.176;2023-07-24T03:52:21;26.80;59.90
37794;DHT22;23632;48.826;15.176;2023-07-24T03:54:48;26.70;60.00
37794;DHT22;23632;48.826;15.176;2023-07-24T03:57:15;26.70;60.20
37794;DHT22;23632;48.826;15.176;2023-07-24T03:59:43;26.70;60.20
37794;DHT22;23632;48.826;15.176;2023-07-24T04:02:10;26.70;60.10
37794;DHT22;23632;48.826;15.176;2023-07-24T04:04:37;26.70;60.30
37794;DHT22;23632;48.826;15.176;2023-07-24T04:07:05;26.70;60.30
37794;DHT22;23632;48.826;15.176;2023-07-24T04:09:32;26.70;60.30
37794;DHT22;23632;48.826;15.176;2023-07-24T04:12:00;26.70;60.00
37794;DHT22;23632;48.826;15.176;2023-07-24T04:14:27;26.70;60.20
37794;DHT22;23632;48.826;15.176;2023-07-24T04:16:54;26.70;60.30
37794;DHT22;23632;48.826;15.176;2023-07-24T04:19:22;26.70;60.50
37794;DHT22;23632;48.826;15.176;2023-07-24T04:21:49;26.70;60.50
37794;DHT22;23632;48.826;15.176;2023-07-24T04:24:16;26.70;60.60
37794;DHT22;23632;48.826;15.176;2023-07-24T04:26:44;26.70;60.40
37794;DHT22;23632;48.826;15.176;2023-07-24T04:29:11;26.70;60.50
37794;DHT22;23632;48.826;15.176;2023-07-24T04:31:38;26.70;60.50
37794;DHT22;23632;48.826;15.176;2023-07-24T04:34:05;26.70;60.50
37794;DHT22;23632;48.826;15.176;2023-07-24T04:36:32;26.70;60.70
37794;DHT22;23632;48.826;15.176;2023-07-24T04:38:59;26.70;60.80
37794;DHT22;23632;48.826;15.176;2023-07-24T04:41:26;26.80;60.90
37794;DHT22;23632;48.826;15.176;2023-07-24T04:43:53;26.70;60.30
37794;DHT22;23632;48.826;15.176;2023-07-24T04:46:20;26.80;60.50
37794;DHT22;23632;48.826;15.176;2023-07-24T04:48:47;26.80;60.80
37794;DHT22;23632;48.826;15.176;2023-07-24T04:51:14;26.80;60.80
37794;DHT22;23632;48.826;15.176;2023-07-24T04:53:42;26.70;60.90
37794;DHT22;23632;48.826;15.176;2023-07-24T04:56:09;26.80;60.90
37794;DHT22;23632;48.826;15.176;2023-07-24T04:58:37;26.80;61.10
37794;DHT22;23632;48.826;15.176;2023-07-24T05:01:04;26.80;61.10
37794;DHT22;23632;48.826;15.176;2023-07-24T05:03:32;26.80;61.00
37794;DHT22;23632;48.826;15.176;2023-07-24T05:05:59;26.80;61.10
37794;DHT22;23632;48.826;15.176;2023-07-24T05:08:26;26.80;61.20
37794;DHT22;23632;48.826;15.176;2023-07-24T05:10:57;26.80;61.30
37794;DHT22;23632;48.826;15.176;2023-07-24T05:13:26;26.80;61.30
37794;DHT22;23632;48.826;15.176;2023-07-24T05:15:53;26.80;61.40
37794;DHT22;23632;48.826;15.176;2023-07-24T05:18:20;26.90;61.50
37794;DHT22;23632;48.826;15.176;2023-07-24T05:20:48;26.90;61.50
37794;DHT22;23632;48.826;15.176;2023-07-24T05:23:18;26.90;61.50
37794;DHT22;23632;48.826;15.176;2023-07-24T05:25:45;26.90;61.50
37794;DHT22;23632;48.826;15.176;2023-07-24T05:28:13;26.90;61.50
37794;DHT22;23632;48.826;15.176;2023-07-24T05:30:40;26.90;61.60
37794;DHT22;23632;48.826;15.176;2023-07-24T05:33:07;26.90;61.70
37794;DHT22;23632;48.826;15.176;2023-07-24T05:35:34;26.90;61.70
37794;DHT22;23632;48.826;15.176;2023-07-24T05:38:01;26.90;61.70
37794;DHT22;23632;48.826;15.176;2023-07-24T05:40:28;26.90;61.70
37794;DHT22;23632;48.826;15.176;2023-07-24T05:42:56;26.90;61.70
37794;DHT22;23632;48.826;15.176;2023-07-24T05:45:23;27.00;61.80
37794;DHT22;23632;48.826;15.176;2023-07-24T05:47:50;27.00;61.70
37794;DHT22;23632;48.826;15.176;2023-07-24T05:50:17;27.00;61.80
37794;DHT22;23632;48.826;15.176;2023-07-24T05:52:44;26.90;61.70
37794;DHT22;23632;48.826;15.176;2023-07-24T05:55:11;27.00;61.70
37794;DHT22;23632;48.826;15.176;2023-07-24T05:57:39;27.00;61.50
37794;DHT22;23632;48.826;15.176;2023-07-24T06:00:07;27.00;61.60
37794;DHT22;23632;48.826;15.176;2023-07-24T06:02:37;27.00;61.60
37794;DHT22;23632;48.826;15.176;2023-07-24T06:05:05;27.00;61.60
37794;DHT22;23632;48.826;15.176;2023-07-24T06:07:32;27.00;61.70
37794;DHT22;23632;48.826;15.176;2023-07-24T06:09:59;27.00;61.70
37794;DHT22;23632;48.826;15.176;2023-07-24T06:12:26;27.00;61.70
37794;DHT22;23632;48.826;15.176;2023-07-24T06:14:53;27.00;61.80
37794;DHT22;23632;48.826;15.176;2023-07-24T06:17:20;27.00;61.80
37794;DHT22;23632;48.826;15.176;2023-07-24T06:19:48;27.00;61.80
37794;DHT22;23632;48.826;15.176;2023-07-24T06:22:15;27.00;61.80
37794;DHT22;23632;48.826;15.176;2023-07-24T06:24:42;27.10;61.80
37794;DHT22;23632;48.826;15.176;2023-07-24T06:27:09;27.10;61.80
37794;DHT22;23632;48.826;15.176;2023-07-24T06:29:36;27.10;61.80
37794;DHT22;23632;48.826;15.176;2023-07-24T06:32:06;27.10;61.80
37794;DHT22;23632;48.826;15.176;2023-07-24T06:34:34;27.00;61.80
37794;DHT22;23632;48.826;15.176;2023-07-24T06:37:01;27.10;61.80
37794;DHT22;23632;48.826;15.176;2023-07-24T06:39:46;27.10;61.80
37794;DHT22;23632;48.826;15.176;2023-07-24T06:42:13;27.10;61.70
37794;DHT22;23632;48.826;15.176;2023-07-24T06:44:40;27.10;61.70
37794;DHT22;23632;48.826;15.176;2023-07-24T06:47:08;27.10;61.70
37794;DHT22;23632;48.826;15.176;2023-07-24T06:49:35;27.10;61.70
37794;DHT22;23632;48.826;15.176;2023-07-24T06:52:02;27.10;61.70
37794;DHT22;23632;48.826;15.176;2023-07-24T06:54:30;27.10;61.70
37794;DHT22;23632;48.826;15.176;2023-07-24T06:56:57;27.10;61.70
37794;DHT22;23632;48.826;15.176;2023-07-24T06:59:24;27.10;61.70
37794;DHT22;23632;48.826;15.176;2023-07-24T07:01:51;27.20;61.80
37794;DHT22;23632;48.826;15.176;2023-07-24T07:04:18;27.20;61.90
37794;DHT22;23632;48.826;15.176;2023-07-24T07:06:45;27.20;61.70
37794;DHT22;23632;48.826;15.176;2023-07-24T07:09:13;27.20;61.80
37794;DHT22;23632;48.826;15.176;2023-07-24T07:11:40;27.20;61.60
37794;DHT22;23632;48.826;15.176;2023-07-24T07:14:10;27.20;61.70
37794;DHT22;23632;48.826;15.176;2023-07-24T07:16:37;27.20;61.80
37794;DHT22;23632;48.826;15.176;2023-07-24T07:19:04;27.20;61.80
37794;DHT22;23632;48.826;15.176;2023-07-24T07:21:31;27.20;61.80
37794;DHT22;23632;48.826;15.176;2023-07-24T07:23:58;27.20;61.80
37794;DHT22;23632;48.826;15.176;2023-07-24T07:26:25;27.20;61.80
37794;DHT22;23632;48.826;15.176;2023-07-24T07:28:53;27.20;61.80
37794;DHT22;23632;48.826;15.176;2023-07-24T07:31:21;27.20;61.80
37794;DHT22;23632;48.826;15.176;2023-07-24T07:33:48;27.20;61.80
37794;DHT22;23632;48.826;15.176;2023-07-24T07:36:15;27.20;61.80
37794;DHT22;23632;48.826;15.176;2023-07-24T07:38:42;27.20;61.80
37794;DHT22;23632;48.826;15.176;2023-07-24T07:41:09;27.20;61.80
37794;DHT22;23632;48.826;15.176;2023-07-24T07:43:37;27.20;61.90
37794;DHT22;23632;48.826;15.176;2023-07-24T07:46:04;27.20;62.00
37794;DHT22;23632;48.826;15.176;2023-07-24T07:48:31;27.20;62.00
37794;DHT22;23632;48.826;15.176;2023-07-24T07:50:59;27.20;62.00
37794;DHT22;23632;48.826;15.176;2023-07-24T07:53:26;27.20;62.10
37794;DHT22;23632;48.826;15.176;2023-07-24T07:55:57;27.20;62.10
37794;DHT22;23632;48.826;15.176;2023-07-24T07:58:26;27.20;62.10
37794;DHT22;23632;48.826;15.176;2023-07-24T08:00:53;27.20;62.00
37794;DHT22;23632;48.826;15.176;2023-07-24T08:03:21;27.20;62.00
37794;DHT22;23632;48.826;15.176;2023-07-24T08:05:48;27.20;61.90
37794;DHT22;23632;48.826;15.176;2023-07-24T08:08:16;27.20;61.70
37794;DHT22;23632;48.826;15.176;2023-07-24T08:10:43;27.20;61.70
37794;DHT22;23632;48.826;15.176;2023-07-24T08:13:10;27.30;61.70
37794;DHT22;23632;48.826;15.176;2023-07-24T08:15:38;27.30;61.50
37794;DHT22;23632;48.826;15.176;2023-07-24T08:18:05;27.20;61.40
37794;DHT22;23632;48.826;15.176;2023-07-24T08:20:35;27.20;61.30
37794;DHT22;23632;48.826;15.176;2023-07-24T08:23:03;27.30;61.40
37794;DHT22;23632;48.826;15.176;2023-07-24T08:25:31;27.30;61.30
37794;DHT22;23632;48.826;15.176;2023-07-24T08:27:58;27.40;61.10
37794;DHT22;23632;48.826;15.176;2023-07-24T08:30:28;27.40;61.00
37794;DHT22;23632;48.826;15.176;2023-07-24T08:32:55;27.40;61.00
37794;DHT22;23632;48.826;15.176;2023-07-24T08:35:23;27.30;60.80
37794;DHT22;23632;48.826;15.176;2023-07-24T08:37:51;27.40;60.90
37794;DHT22;23632;48.826;15.176;2023-07-24T08:40:18;27.30;60.80
37794;DHT22;23632;48.826;15.176;2023-07-24T08:42:49;27.40;60.90
37794;DHT22;23632;48.826;15.176;2023-07-24T08:45:18;27.40;60.70
37794;DHT22;23632;48.826;15.176;2023-07-24T08:47:45;27.40;61.70
37794;DHT22;23632;48.826;15.176;2023-07-24T08:50:13;27.40;60.90
37794;DHT22;23632;48.826;15.176;2023-07-24T08:52:42;27.40;60.80
37794;DHT22;23632;48.826;15.176;2023-07-24T08:55:10;27.40;60.70
37794;DHT22;23632;48.826;15.176;2023-07-24T08:57:38;27.40;60.60
37794;DHT22;23632;48.826;15.176;2023-07-24T09:00:05;27.40;60.60
37794;DHT22;23632;48.826;15.176;2023-07-24T09:02:34;27.40;60.40
37794;DHT22;23632;48.826;15.176;2023-07-24T09:05:02;27.40;60.60
37794;DHT22;23632;48.826;15.176;2023-07-24T09:07:31;27.40;60.50
37794;DHT22;23632;48.826;15.176;2023-07-24T09:09:58;27.40;60.40
37794;DHT22;23632;48.826;15.176;2023-07-24T09:12:25;27.40;60.50
37794;DHT22;23632;48.826;15.176;2023-07-24T09:15:05;27.40;60.50
37794;DHT22;23632;48.826;15.176;2023-07-24T09:17:34;27.50;60.50
37794;DHT22;23632;48.826;15.176;2023-07-24T09:20:02;27.50;60.50
37794;DHT22;23632;48.826;15.176;2023-07-24T09:22:30;27.50;60.50
37794;DHT22;23632;48.826;15.176;2023-07-24T09:25:00;27.50;60.60
37794;DHT22;23632;48.826;15.176;2023-07-24T09:27:30;27.50;60.60
37794;DHT22;23632;48.826;15.176;2023-07-24T09:29:59;27.50;60.50
37794;DHT22;23632;48.826;15.176;2023-07-24T09:32:27;27.50;60.30
37794;DHT22;23632;48.826;15.176;2023-07-24T09:34:54;27.50;60.30
37794;DHT22;23632;48.826;15.176;2023-07-24T09:37:33;27.60;60.40
37794;DHT22;23632;48.826;15.176;2023-07-24T09:40:04;27.60;60.20
37794;DHT22;23632;48.826;15.176;2023-07-24T09:42:33;27.60;60.30
37794;DHT22;23632;48.826;15.176;2023-07-24T09:45:08;27.60;60.20
37794;DHT22;23632;48.826;15.176;2023-07-24T09:47:35;27.60;60.10
37794;DHT22;23632;48.826;15.176;2023-07-24T09:50:23;27.70;60.20
37794;DHT22;23632;48.826;15.176;2023-07-24T09:52:51;27.70;60.10
37794;DHT22;23632;48.826;15.176;2023-07-24T09:55:21;27.70;60.00
37794;DHT22;23632;48.826;15.176;2023-07-24T09:57:56;27.70;60.10
37794;DHT22;23632;48.826;15.176;2023-07-24T10:00:25;27.70;60.00
37794;DHT22;23632;48.826;15.176;2023-07-24T10:02:53;27.70;60.90
37794;DHT22;23632;48.826;15.176;2023-07-24T10:05:20;27.70;59.90
37794;DHT22;23632;48.826;15.176;2023-07-24T10:07:48;27.70;59.80
37794;DHT22;23632;48.826;15.176;2023-07-24T10:10:15;27.70;59.80
37794;DHT22;23632;48.826;15.176;2023-07-24T10:12:43;27.80;59.90
37794;DHT22;23632;48.826;15.176;2023-07-24T10:15:10;27.80;59.80
37794;DHT22;23632;48.826;15.176;2023-07-24T10:17:40;27.80;59.70
37794;DHT22;23632;48.826;15.176;2023-07-24T10:20:09;27.80;59.60
37794;DHT22;23632;48.826;15.176;2023-07-24T10:22:41;27.80;59.70
37794;DHT22;23632;48.826;15.176;2023-07-24T10:25:10;27.80;59.70
37794;DHT22;23632;48.826;15.176;2023-07-24T10:27:45;27.80;59.50
37794;DHT22;23632;48.826;15.176;2023-07-24T10:30:14;27.90;60.50
37794;DHT22;23632;48.826;15.176;2023-07-24T10:33:12;27.90;60.70
37794;DHT22;23632;48.826;15.176;2023-07-24T10:35:46;28.00;59.50
37794;DHT22;23632;48.826;15.176;2023-07-24T10:38:15;28.00;59.40
37794;DHT22;23632;48.826;15.176;2023-07-24T10:40:45;28.00;60.50
37794;DHT22;23632;48.826;15.176;2023-07-24T10:43:19;28.00;59.40
37794;DHT22;23632;48.826;15.176;2023-07-24T10:45:52;28.00;59.10
37794;DHT22;23632;48.826;15.176;2023-07-24T10:48:23;28.10;59.10
37794;DHT22;23632;48.826;15.176;2023-07-24T10:50:52;28.10;59.20
37794;DHT22;23632;48.826;15.176;2023-07-24T10:53:22;28.10;59.10
37794;DHT22;23632;48.826;15.176;2023-07-24T10:55:50;28.10;59.10
37794;DHT22;23632;48.826;15.176;2023-07-24T10:58:18;28.20;58.90
37794;DHT22;23632;48.826;15.176;2023-07-24T11:00:46;28.20;58.90
37794;DHT22;23632;48.826;15.176;2023-07-24T11:03:14;28.20;58.90
37794;DHT22;23632;48.826;15.176;2023-07-24T11:05:43;28.20;58.50
37794;DHT22;23632;48.826;15.176;2023-07-24T11:08:13;28.20;58.60
37794;DHT22;23632;48.826;15.176;2023-07-24T11:10:54;28.30;58.60
37794;DHT22;23632;48.826;15.176;2023-07-24T11:13:24;28.30;58.40
37794;DHT22;23632;48.826;15.176;2023-07-24T11:15:53;28.30;58.70
37794;DHT22;23632;48.826;15.176;2023-07-24T11:18:22;28.30;58.70
37794;DHT22;23632;48.826;15.176;2023-07-24T11:20:57;28.30;58.70
37794;DHT22;23632;48.826;15.176;2023-07-24T11:23:24;28.30;58.70
37794;DHT22;23632;48.826;15.176;2023-07-24T11:25:52;28.30;58.50
37794;DHT22;23632;48.826;15.176;2023-07-24T11:28:20;28.30;58.50
37794;DHT22;23632;48.826;15.176;2023-07-24T11:30:48;28.30;58.30
37794;DHT22;23632;48.826;15.176;2023-07-24T11:33:16;28.30;58.60
37794;DHT22;23632;48.826;15.176;2023-07-24T11:35:45;28.30;58.60
37794;DHT22;23632;48.826;15.176;2023-07-24T11:38:14;28.30;58.40
37794;DHT22;23632;48.826;15.176;2023-07-24T11:40:42;28.30;58.30
37794;DHT22;23632;48.826;15.176;2023-07-24T11:43:21;28.30;58.10
37794;DHT22;23632;48.826;15.176;2023-07-24T11:45:51;28.30;58.20
37794;DHT22;23632;48.826;15.176;2023-07-24T11:48:20;28.40;58.40
37794;DHT22;23632;48.826;15.176;2023-07-24T11:50:55;28.40;58.40
37794;DHT22;23632;48.826;15.176;2023-07-24T11:53:32;28.40;58.30
37794;DHT22;23632;48.826;15.176;2023-07-24T11:56:00;28.40;58.40
37794;DHT22;23632;48.826;15.176;2023-07-24T11:58:29;28.40;58.30
37794;DHT22;23632;48.826;15.176;2023-07-24T12:00:57;28.50;58.30
37794;DHT22;23632;48.826;15.176;2023-07-24T12:03:26;28.50;58.00
37794;DHT22;23632;48.826;15.176;2023-07-24T12:05:54;28.50;58.40
37794;DHT22;23632;48.826;15.176;2023-07-24T12:08:30;28.50;58.10
37794;DHT22;23632;48.826;15.176;2023-07-24T12:10:59;28.50;58.30
37794;DHT22;23632;48.826;15.176;2023-07-24T12:13:26;28.60;58.00
37794;DHT22;23632;48.826;15.176;2023-07-24T12:15:55;28.60;58.00
37794;DHT22;23632;48.826;15.176;2023-07-24T12:18:22;28.60;58.00
37794;DHT22;23632;48.826;15.176;2023-07-24T12:20:49;28.60;58.00
37794;DHT22;23632;48.826;15.176;2023-07-24T12:23:16;28.70;58.00
37794;DHT22;23632;48.826;15.176;2023-07-24T12:25:44;28.70;58.10
37794;DHT22;23632;48.826;15.176;2023-07-24T12:28:11;28.70;57.90
37794;DHT22;23632;48.826;15.176;2023-07-24T12:30:39;28.70;58.00
37794;DHT22;23632;48.826;15.176;2023-07-24T12:33:06;28.70;57.80
37794;DHT22;23632;48.826;15.176;2023-07-24T12:35:33;28.70;57.80
37794;DHT22;23632;48.826;15.176;2023-07-24T12:38:00;28.70;57.60
37794;DHT22;23632;48.826;15.176;2023-07-24T12:40:27;28.80;57.50
37794;DHT22;23632;48.826;15.176;2023-07-24T12:42:54;28.80;58.70
37794;DHT22;23632;48.826;15.176;2023-07-24T12:45:21;28.80;57.60
37794;DHT22;23632;48.826;15.176;2023-07-24T12:47:48;28.80;57.70
37794;DHT22;23632;48.826;15.176;2023-07-24T12:50:16;28.80;57.60
37794;DHT22;23632;48.826;15.176;2023-07-24T12:52:43;28.80;57.50
37794;DHT22;23632;48.826;15.176;2023-07-24T12:55:11;28.80;57.40
37794;DHT22;23632;48.826;15.176;2023-07-24T12:57:38;28.80;57.40
37794;DHT22;23632;48.826;15.176;2023-07-24T13:00:06;28.80;57.40
37794;DHT22;23632;48.826;15.176;2023-07-24T13:02:34;28.90;57.60
37794;DHT22;23632;48.826;15.176;2023-07-24T13:05:01;28.90;57.50
37794;DHT22;23632;48.826;15.176;2023-07-24T13:07:29;28.90;57.60
37794;DHT22;23632;48.826;15.176;2023-07-24T13:09:56;28.90;57.40
37794;DHT22;23632;48.826;15.176;2023-07-24T13:12:23;28.90;57.40
37794;DHT22;23632;48.826;15.176;2023-07-24T13:14:50;28.90;57.10
37794;DHT22;23632;48.826;15.176;2023-07-24T13:17:18;29.00;57.10
37794;DHT22;23632;48.826;15.176;2023-07-24T13:19:45;29.00;57.40
37794;DHT22;23632;48.826;15.176;2023-07-24T13:22:12;29.00;57.40
37794;DHT22;23632;48.826;15.176;2023-07-24T13:24:39;29.00;57.30
37794;DHT22;23632;48.826;15.176;2023-07-24T13:27:06;29.00;57.20
37794;DHT22;23632;48.826;15.176;2023-07-24T13:29:33;29.00;57.20
37794;DHT22;23632;48.826;15.176;2023-07-24T13:32:00;29.00;57.10
37794;DHT22;23632;48.826;15.176;2023-07-24T13:34:27;29.00;57.20
37794;DHT22;23632;48.826;15.176;2023-07-24T13:36:54;29.00;57.20
37794;DHT22;23632;48.826;15.176;2023-07-24T13:39:21;29.00;57.30
37794;DHT22;23632;48.826;15.176;2023-07-24T13:41:49;29.00;57.10
37794;DHT22;23632;48.826;15.176;2023-07-24T13:44:16;29.00;57.10
37794;DHT22;23632;48.826;15.176;2023-07-24T13:46:43;29.00;57.20
37794;DHT22;23632;48.826;15.176;2023-07-24T13:49:10;29.00;57.20
37794;DHT22;23632;48.826;15.176;2023-07-24T13:51:37;29.00;57.20
37794;DHT22;23632;48.826;15.176;2023-07-24T13:54:04;29.00;57.20
37794;DHT22;23632;48.826;15.176;2023-07-24T13:56:32;29.00;57.30
37794;DHT22;23632;48.826;15.176;2023-07-24T13:59:01;29.00;57.30
37794;DHT22;23632;48.826;15.176;2023-07-24T14:01:29;29.00;57.20
37794;DHT22;23632;48.826;15.176;2023-07-24T14:03:57;29.00;57.30
37794;DHT22;23632;48.826;15.176;2023-07-24T14:06:26;29.00;57.30
37794;DHT22;23632;48.826;15.176;2023-07-24T14:08:53;29.00;57.30
37794;DHT22;23632;48.826;15.176;2023-07-24T14:11:21;29.00;57.40
37794;DHT22;23632;48.826;15.176;2023-07-24T14:13:49;29.00;57.60
37794;DHT22;23632;48.826;15.176;2023-07-24T14:16:16;29.00;57.50
37794;DHT22;23632;48.826;15.176;2023-07-24T14:18:43;29.00;57.30
37794;DHT22;23632;48.826;15.176;2023-07-24T14:21:10;29.00;57.30
37794;DHT22;23632;48.826;15.176;2023-07-24T14:23:37;29.00;57.30
37794;DHT22;23632;48.826;15.176;2023-07-24T14:26:04;29.10;57.20
37794;DHT22;23632;48.826;15.176;2023-07-24T14:28:31;29.10;57.30
37794;DHT22;23632;48.826;15.176;2023-07-24T14:30:59;29.10;57.30
37794;DHT22;23632;48.826;15.176;2023-07-24T14:33:26;29.10;57.40
37794;DHT22;23632;48.826;15.176;2023-07-24T14:35:53;29.10;57.40
37794;DHT22;23632;48.826;15.176;2023-07-24T14:38:21;29.10;57.40
37794;DHT22;23632;48.826;15.176;2023-07-24T14:40:49;29.10;57.20
37794;DHT22;23632;48.826;15.176;2023-07-24T14:43:16;29.20;57.20
37794;DHT22;23632;48.826;15.176;2023-07-24T14:45:43;29.20;57.50
37794;DHT22;23632;48.826;15.176;2023-07-24T14:48:10;29.20;57.50
37794;DHT22;23632;48.826;15.176;2023-07-24T14:50:39;29.30;57.50
37794;DHT22;23632;48.826;15.176;2023-07-24T14:53:07;29.30;57.50
37794;DHT22;23632;48.826;15.176;2023-07-24T14:55:33;29.30;57.30
37794;DHT22;23632;48.826;15.176;2023-07-24T14:58:00;29.40;57.30
37794;DHT22;23632;48.826;15.176;2023-07-24T15:00:28;29.40;57.10
37794;DHT22;23632;48.826;15.176;2023-07-24T15:02:56;29.40;57.00
37794;DHT22;23632;48.826;15.176;2023-07-24T15:05:23;29.40;57.00
37794;DHT22;23632;48.826;15.176;2023-07-24T15:07:51;29.40;56.70
37794;DHT22;23632;48.826;15.176;2023-07-24T15:10:19;29.40;56.70
37794;DHT22;23632;48.826;15.176;2023-07-24T15:12:48;29.40;56.90
37794;DHT22;23632;48.826;15.176;2023-07-24T15:15:15;29.40;56.90
37794;DHT22;23632;48.826;15.176;2023-07-24T15:17:42;29.40;56.80
37794;DHT22;23632;48.826;15.176;2023-07-24T15:20:09;29.40;56.90
37794;DHT22;23632;48.826;15.176;2023-07-24T15:22:39;29.30;56.80